Fredericksbg, Texas
Current Conditions -  °F | °C
As of 10:35 AM on Thursday 30 Oct 2014 (Local Time) from KT82 Reporting Station
Haze Haze  
Wind Chill: 64°   Ceiling: 500
Heat Index: 64°   Visibility: 4mi
Dew Point: 62°   Wind: 3mph
Humidity: 93%   Direction: 160°SSE
Pressure: 30.17"   Gusts: NA
Location:  30.3069°N, 98.8978°W
Report Text: KT82 301535Z AUTO 16003KT 4SM BR OVC005 18/17 A3017 RMK AO2 T01760165
Loading
Personal Weather Stations






























Interactive Weather Map
Tropical Storm Tracking
New forecast layout! Learn more

10-Day Weather Forecast

Advertisements
Track Severe Weather on mobile